Time;durP1;ratioP1;P1;durP2;ratioP2;P2;SDS_P1;SDS_P2;PMS_P1;PMS_P2;Temp;Humidity;BMP_temperature;BMP_pressure;BME280_temperature;BME280_humidity;BME280_pressure;Samples;Min_cycle;Max_cycle;Signal;HPM_P1;HPM_P2
2021/01/09 00:00:32;;;;;;;52.90;28.50;;;3.30;99.90;;;;;;5090612;28;20028;-74
2021/01/09 00:02:58;;;;;;;57.38;31.33;;;3.20;99.90;;;;;;5096934;28;20031;-73
2021/01/09 00:05:24;;;;;;;51.75;29.75;;;3.10;99.90;;;;;;5090741;28;20107;-76
2021/01/09 00:07:49;;;;;;;61.45;33.38;;;3.10;99.90;;;;;;5093638;28;20342;-74
2021/01/09 00:10:15;;;;;;;57.30;30.33;;;3.10;99.90;;;;;;5089680;28;20031;-75
2021/01/09 00:12:41;;;;;;;56.65;32.88;;;3.10;99.90;;;;;;5067939;28;20450;-75
2021/01/09 00:15:08;;;;;;;51.40;29.85;;;3.00;99.90;;;;;;5075057;28;20020;-78
2021/01/09 00:17:35;;;;;;;54.60;31.42;;;3.00;99.90;;;;;;5061285;28;20027;-73
2021/01/09 00:20:04;;;;;;;55.50;31.13;;;2.80;99.90;;;;;;5090089;28;20070;-74
2021/01/09 00:22:29;;;;;;;56.92;31.95;;;3.00;99.90;;;;;;5084874;28;20081;-73
2021/01/09 00:24:55;;;;;;;53.80;29.30;;;2.90;99.90;;;;;;5089328;28;20028;-79
2021/01/09 00:27:21;;;;;;;57.17;31.13;;;3.00;99.90;;;;;;5075254;28;20024;-73
2021/01/09 00:29:47;;;;;;;54.08;31.42;;;2.80;99.90;;;;;;5088721;28;20361;-74
2021/01/09 00:32:13;;;;;;;58.55;30.45;;;3.00;99.90;;;;;;5093013;28;20048;-75
2021/01/09 00:34:39;;;;;;;53.95;32.53;;;2.80;99.90;;;;;;5093062;28;20020;-78
2021/01/09 00:37:04;;;;;;;50.05;29.15;;;2.90;99.90;;;;;;5092394;28;20355;-78
2021/01/09 00:39:30;;;;;;;56.88;32.80;;;2.80;99.90;;;;;;5067963;28;20062;-75
2021/01/09 00:42:00;;;;;;;55.22;34.25;;;2.70;99.90;;;;;;5090529;28;20412;-74
2021/01/09 00:44:27;;;;;;;52.30;30.70;;;2.70;99.90;;;;;;5093110;28;20108;-76
2021/01/09 00:46:54;;;;;;;52.90;30.67;;;2.60;99.90;;;;;;5072634;28;20028;-77
2021/01/09 00:49:21;;;;;;;61.05;34.75;;;2.60;99.90;;;;;;5081501;28;20469;-74
2021/01/09 00:51:46;;;;;;;50.40;33.17;;;2.60;99.90;;;;;;5093201;28;20099;-73
2021/01/09 00:54:12;;;;;;;56.25;31.23;;;2.60;99.90;;;;;;5093360;28;20110;-77
2021/01/09 00:56:38;;;;;;;51.85;29.98;;;2.60;99.90;;;;;;5092676;28;20030;-75
2021/01/09 00:59:03;;;;;;;54.13;32.00;;;2.50;99.90;;;;;;5093027;28;20420;-74
2021/01/09 01:01:29;;;;;;;51.95;30.40;;;2.50;99.90;;;;;;5082429;28;20054;-75
2021/01/09 01:03:55;;;;;;;56.90;29.38;;;2.50;99.90;;;;;;5089002;28;20028;-76
2021/01/09 01:06:24;;;;;;;52.92;30.00;;;2.40;99.90;;;;;;5093158;28;20466;-73
2021/01/09 01:08:51;;;;;;;55.33;30.77;;;2.40;99.90;;;;;;5092740;28;20028;-75
2021/01/09 01:11:28;;;;;;;49.90;29.85;;;2.30;99.90;;;;;;5092851;28;20024;-76
2021/01/09 01:13:54;;;;;;;56.10;32.20;;;2.30;99.90;;;;;;5093126;28;20047;-77
2021/01/09 01:16:21;;;;;;;58.45;34.53;;;2.20;99.90;;;;;;5092826;28;20024;-78
2021/01/09 01:18:47;;;;;;;62.35;32.92;;;2.30;99.90;;;;;;5075021;28;20547;-76
2021/01/09 01:21:13;;;;;;;54.70;32.15;;;2.30;99.90;;;;;;5092850;28;20099;-77
2021/01/09 01:23:39;;;;;;;58.17;32.92;;;2.30;99.90;;;;;;5081514;28;20059;-78
2021/01/09 01:26:06;;;;;;;59.85;33.88;;;2.20;99.90;;;;;;5071818;28;20423;-76
2021/01/09 01:28:32;;;;;;;62.80;33.40;;;2.30;99.90;;;;;;5092693;28;20051;-78
2021/01/09 01:30:58;;;;;;;63.55;34.63;;;2.20;99.90;;;;;;5092062;28;20482;-75
2021/01/09 01:33:23;;;;;;;52.75;30.67;;;2.20;99.90;;;;;;5093376;28;20174;-79
2021/01/09 01:35:50;;;;;;;57.85;31.38;;;2.10;99.90;;;;;;5092526;28;20052;-78
2021/01/09 01:38:16;;;;;;;61.30;32.20;;;2.00;99.90;;;;;;5086895;28;20028;-78
2021/01/09 01:40:41;;;;;;;64.95;36.28;;;2.10;99.90;;;;;;5083983;28;20028;-75
2021/01/09 01:43:14;;;;;;;62.28;33.53;;;2.20;99.90;;;;;;5092274;28;20107;-78
2021/01/09 01:45:41;;;;;;;59.55;31.85;;;2.20;99.90;;;;;;5078760;28;20029;-79
2021/01/09 01:48:09;;;;;;;60.92;33.35;;;2.10;99.90;;;;;;5093037;28;20035;-76
2021/01/09 01:50:37;;;;;;;70.65;37.55;;;2.10;99.90;;;;;;5096445;28;20046;-78
2021/01/09 01:53:03;;;;;;;68.47;35.35;;;2.00;99.90;;;;;;5095885;28;20024;-78
2021/01/09 01:55:30;;;;;;;64.47;36.30;;;2.00;99.90;;;;;;5096116;28;20102;-77
2021/01/09 01:57:56;;;;;;;71.60;36.75;;;1.90;99.90;;;;;;5095855;28;20020;-79
2021/01/09 02:00:24;;;;;;;89.30;37.15;;;1.80;99.90;;;;;;5096660;28;20468;-79
2021/01/09 02:03:00;;;;;;;62.45;35.72;;;1.90;99.90;;;;;;5096014;28;20028;-74
2021/01/09 02:05:33;;;;;;;68.32;35.75;;;2.00;99.90;;;;;;5095601;28;20024;-77
2021/01/09 02:08:02;;;;;;;73.57;38.10;;;1.90;99.90;;;;;;5096110;28;20020;-80
2021/01/09 02:10:28;;;;;;;63.70;35.38;;;1.80;99.90;;;;;;5077934;28;20055;-73
2021/01/09 02:13:21;;;;;;;65.18;34.00;;;0.10;99.90;;;;;;5096067;28;20043;-76
2021/01/09 02:15:51;;;;;;;89.88;38.85;;;;;;;;;;5096057;28;20032;-78
2021/01/09 02:18:18;;;;;;;67.15;33.90;;;;;;;;;;5077918;28;20028;-78
2021/01/09 02:20:48;;;;;;;99.63;38.50;;;1.60;99.90;;;;;;5095386;28;20020;-76
2021/01/09 02:23:14;;;;;;;66.78;31.70;;;;;;;;;;5095554;28;20036;-77
2021/01/09 02:25:40;;;;;;;72.18;37.65;;;;;;;;;;5095628;28;20039;-76
2021/01/09 02:28:06;;;;;;;118.72;40.58;;;1.50;99.90;;;;;;5095454;28;20012;-76
2021/01/09 02:30:34;;;;;;;79.78;35.97;;;1.50;99.90;;;;;;5077386;28;20614;-79
2021/01/09 02:33:06;;;;;;;86.63;34.35;;;1.50;99.90;;;;;;5080814;28;20359;-74
2021/01/09 02:35:34;;;;;;;68.97;36.42;;;1.50;99.90;;;;;;5095503;28;20023;-76
2021/01/09 02:38:00;;;;;;;68.30;35.00;;;1.20;99.90;;;;;;5081335;28;20020;-77
2021/01/09 02:40:26;;;;;;;66.10;31.75;;;1.50;99.90;;;;;;5077132;28;20047;-74
2021/01/09 02:42:52;;;;;;;81.97;37.25;;;1.40;99.90;;;;;;5095230;28;20036;-80
2021/01/09 02:45:18;;;;;;;78.68;39.92;;;1.40;99.90;;;;;;5095424;28;20480;-77
2021/01/09 02:47:44;;;;;;;63.38;35.53;;;1.30;99.90;;;;;;5077002;28;20113;-78
2021/01/09 02:50:10;;;;;;;74.03;38.50;;;1.40;99.90;;;;;;5095017;28;20036;-78
2021/01/09 02:52:38;;;;;;;86.05;38.92;;;1.50;99.90;;;;;;5077258;28;20413;-74
2021/01/09 02:55:05;;;;;;;76.93;39.88;;;1.50;99.90;;;;;;5076742;28;20413;-75
2021/01/09 02:57:31;;;;;;;74.68;37.67;;;1.50;99.90;;;;;;5095514;28;20048;-76
2021/01/09 02:59:57;;;;;;;73.30;38.33;;;1.50;99.90;;;;;;5094995;28;20470;-77
2021/01/09 03:02:22;;;;;;;59.03;33.08;;;1.50;99.90;;;;;;5076876;28;20038;-77
2021/01/09 03:04:48;;;;;;;65.40;34.22;;;0.40;99.90;;;;;;5095603;28;20477;-74
2021/01/09 03:07:14;;;;;;;63.70;36.13;;;1.40;99.90;;;;;;5094646;28;20102;-73
2021/01/09 03:09:40;;;;;;;57.38;31.80;;;1.30;99.90;;;;;;5094717;28;20460;-73
2021/01/09 03:12:06;;;;;;;65.43;35.83;;;1.30;99.90;;;;;;5095336;28;20032;-74
2021/01/09 03:14:32;;;;;;;55.10;28.83;;;1.30;99.90;;;;;;5080857;28;20067;-74
2021/01/09 03:16:58;;;;;;;68.93;35.40;;;;;;;;;;5094227;28;20059;-73
2021/01/09 03:19:24;;;;;;;76.40;35.88;;;1.30;99.90;;;;;;5076646;28;20009;-74
2021/01/09 03:21:50;;;;;;;71.97;36.88;;;1.20;99.90;;;;;;5094609;28;20435;-74
2021/01/09 03:24:16;;;;;;;71.70;36.28;;;1.10;99.90;;;;;;5094073;28;20016;-74
2021/01/09 03:26:42;;;;;;;73.00;36.78;;;1.00;99.90;;;;;;5094811;28;20028;-74
2021/01/09 03:29:08;;;;;;;76.30;37.38;;;1.20;99.90;;;;;;5094162;28;20020;-74
2021/01/09 03:31:33;;;;;;;64.82;36.05;;;1.20;99.90;;;;;;5094573;28;20405;-75
2021/01/09 03:33:59;;;;;;;58.42;31.55;;;1.40;99.90;;;;;;5094889;28;20161;-74
2021/01/09 03:36:25;;;;;;;63.97;34.00;;;2.30;99.90;;;;;;5093936;28;20103;-74
2021/01/09 03:38:50;;;;;;;62.40;34.22;;;1.30;99.90;;;;;;5094262;28;20024;-74
2021/01/09 03:41:16;;;;;;;61.28;32.63;;;1.70;99.90;;;;;;5074236;28;20028;-75
2021/01/09 03:43:42;;;;;;;62.90;31.95;;;1.20;99.90;;;;;;5081541;28;20058;-75
2021/01/09 03:46:08;;;;;;;52.60;27.77;;;1.40;99.90;;;;;;5094492;28;20099;-74
2021/01/09 03:48:33;;;;;;;61.97;33.35;;;1.30;99.90;;;;;;5094157;28;20024;-74
2021/01/09 03:50:59;;;;;;;58.40;32.10;;;1.30;99.90;;;;;;5093733;28;20449;-73
2021/01/09 03:53:25;;;;;;;64.88;35.78;;;1.40;99.90;;;;;;5094216;28;20531;-73
2021/01/09 03:55:50;;;;;;;57.60;33.13;;;1.40;99.90;;;;;;5076045;28;20027;-75
2021/01/09 03:58:16;;;;;;;55.47;27.00;;;1.40;99.90;;;;;;5093909;28;20114;-75
2021/01/09 04:00:42;;;;;;;50.75;29.83;;;1.40;99.90;;;;;;5093978;28;20016;-75
2021/01/09 04:03:08;;;;;;;65.20;33.08;;;1.40;99.90;;;;;;5077945;28;20035;-74
2021/01/09 04:05:33;;;;;;;42.78;24.98;;;1.50;99.90;;;;;;5102921;28;20024;-75
2021/01/09 04:07:59;;;;;;;58.17;32.45;;;1.40;99.90;;;;;;5098415;28;20024;-75
2021/01/09 04:10:25;;;;;;;65.93;36.08;;;1.40;99.90;;;;;;5079960;28;20028;-75
2021/01/09 04:12:50;;;;;;;48.72;27.30;;;1.40;99.90;;;;;;5078391;28;20020;-75
2021/01/09 04:15:16;;;;;;;56.83;32.67;;;1.40;99.90;;;;;;5075626;28;20028;-73
2021/01/09 04:17:42;;;;;;;60.72;33.33;;;1.40;99.90;;;;;;5079182;28;20146;-74
2021/01/09 04:20:08;;;;;;;62.53;33.13;;;1.40;99.90;;;;;;5092156;28;20070;-73
2021/01/09 04:22:35;;;;;;;63.25;32.30;;;1.20;99.90;;;;;;5093628;28;20042;-73
2021/01/09 04:25:01;;;;;;;53.65;28.10;;;1.40;99.90;;;;;;5093253;28;20024;-75
2021/01/09 04:27:26;;;;;;;49.50;29.77;;;1.50;99.90;;;;;;5079411;28;20370;-75
2021/01/09 04:29:52;;;;;;;57.65;32.55;;;1.40;99.90;;;;;;5093646;28;20024;-75
2021/01/09 04:32:18;;;;;;;59.10;32.60;;;1.50;99.90;;;;;;5074692;28;20135;-74
2021/01/09 04:34:46;;;;;;;52.58;28.77;;;1.50;99.90;;;;;;5088976;28;20027;-76
2021/01/09 04:37:12;;;;;;;49.03;27.13;;;1.50;99.90;;;;;;5055317;28;20033;-75
2021/01/09 04:39:38;;;;;;;59.30;31.70;;;1.50;99.90;;;;;;5089576;28;20088;-76
2021/01/09 04:42:05;;;;;;;53.50;30.33;;;1.50;99.90;;;;;;5093196;28;20016;-76
2021/01/09 04:44:31;;;;;;;61.90;33.20;;;1.40;99.90;;;;;;5093411;28;20027;-75
2021/01/09 04:47:01;;;;;;;59.53;32.88;;;1.40;99.90;;;;;;5078397;28;20384;-75
2021/01/09 04:49:28;;;;;;;62.72;35.88;;;1.50;99.90;;;;;;5093177;28;20020;-75
2021/01/09 04:51:55;;;;;;;59.60;32.25;;;1.50;99.90;;;;;;5093352;28;20379;-75
2021/01/09 04:54:24;;;;;;;63.05;32.20;;;1.50;99.90;;;;;;5092884;28;20031;-76
2021/01/09 04:56:52;;;;;;;58.05;31.75;;;1.50;99.90;;;;;;5093471;28;20452;-76
2021/01/09 04:59:19;;;;;;;57.22;30.38;;;1.50;99.90;;;;;;5075066;28;20074;-76
2021/01/09 05:01:46;;;;;;;61.25;30.83;;;1.60;99.90;;;;;;5092790;28;20476;-75
2021/01/09 05:04:13;;;;;;;61.33;30.23;;;1.60;99.90;;;;;;5093067;28;20036;-79
2021/01/09 05:06:40;;;;;;;59.63;33.90;;;1.60;99.90;;;;;;5093031;28;20028;-75
2021/01/09 05:09:07;;;;;;;58.33;31.58;;;1.60;99.90;;;;;;5092466;28;20557;-73
2021/01/09 05:11:35;;;;;;;52.97;30.67;;;1.50;99.90;;;;;;5075112;28;20020;-73
2021/01/09 05:14:04;;;;;;;54.17;28.42;;;1.50;99.90;;;;;;5092634;28;20389;-74
2021/01/09 05:16:30;;;;;;;54.72;30.27;;;1.40;99.90;;;;;;5093154;28;20050;-75
2021/01/09 05:18:56;;;;;;;58.58;33.00;;;1.40;99.90;;;;;;5093138;28;20107;-75
2021/01/09 05:21:22;;;;;;;56.10;32.05;;;1.30;99.90;;;;;;5074574;28;20062;-73
2021/01/09 05:23:55;;;;;;;100.90;50.70;;;1.50;99.90;;;;;;5076530;28;20081;-72
2021/01/09 05:26:22;;;;;;;60.88;34.38;;;1.30;99.90;;;;;;5096754;28;20024;-75
2021/01/09 05:28:50;;;;;;;57.78;30.90;;;1.30;99.90;;;;;;5096773;28;20462;-75
2021/01/09 05:31:17;;;;;;;56.35;32.03;;;1.40;99.90;;;;;;5096542;28;20048;-75
2021/01/09 05:33:43;;;;;;;50.95;30.02;;;1.40;99.90;;;;;;5096711;28;20122;-75
2021/01/09 05:36:10;;;;;;;57.28;31.98;;;1.30;99.90;;;;;;5096453;28;20025;-74
2021/01/09 05:38:37;;;;;;;59.10;31.30;;;1.30;99.90;;;;;;5096644;28;20027;-75
2021/01/09 05:41:04;;;;;;;57.25;31.67;;;1.40;99.90;;;;;;5096583;28;20024;-78
2021/01/09 05:43:30;;;;;;;57.72;34.22;;;1.30;99.90;;;;;;5096110;28;20028;-78
2021/01/09 05:45:57;;;;;;;60.03;33.15;;;1.30;99.90;;;;;;5095245;28;20496;-75
2021/01/09 05:48:24;;;;;;;55.33;29.95;;;1.30;99.90;;;;;;5095679;28;20507;-74
2021/01/09 05:50:51;;;;;;;58.25;30.50;;;1.30;99.90;;;;;;5096203;28;20077;-74
2021/01/09 05:53:37;;;;;;;58.58;33.13;;;1.30;99.90;;;;;;5089200;28;20036;-75
2021/01/09 05:56:04;;;;;;;56.83;32.17;;;1.40;99.90;;;;;;5095673;28;20027;-74
2021/01/09 05:58:31;;;;;;;64.22;35.42;;;1.50;99.90;;;;;;5096120;28;20031;-75
2021/01/09 06:01:06;;;;;;;61.25;32.42;;;1.50;99.90;;;;;;5089392;28;20070;-74
2021/01/09 06:03:37;;;;;;;60.67;32.95;;;1.50;99.90;;;;;;5095829;28;20466;-75
2021/01/09 06:06:27;;;;;;;59.17;29.67;;;1.50;99.90;;;;;;5096384;28;20035;-73
2021/01/09 06:08:58;;;;;;;62.38;34.15;;;1.30;99.90;;;;;;5091404;28;20374;-73
2021/01/09 06:11:30;;;;;;;60.28;32.30;;;1.30;99.90;;;;;;5063530;28;20028;-73
2021/01/09 06:14:00;;;;;;;60.38;31.55;;;1.30;99.90;;;;;;5096124;28;20028;-75
2021/01/09 06:16:27;;;;;;;61.30;33.53;;;1.30;99.90;;;;;;5095761;28;20024;-74
2021/01/09 06:18:53;;;;;;;72.47;31.33;;;1.30;99.90;;;;;;5095279;28;20048;-74
2021/01/09 06:21:20;;;;;;;69.18;35.08;;;1.40;99.90;;;;;;5095860;28;20055;-74
2021/01/09 06:23:46;;;;;;;61.08;34.35;;;1.60;99.90;;;;;;5095497;28;20509;-75
2021/01/09 06:26:14;;;;;;;62.63;35.88;;;1.60;99.90;;;;;;5095165;28;20048;-73
2021/01/09 06:28:51;;;;;;;50.67;30.50;;;1.60;99.90;;;;;;5095734;28;20496;-75
2021/01/09 06:31:21;;;;;;;59.13;33.50;;;1.70;99.90;;;;;;5095307;28;20457;-73
2021/01/09 06:33:52;;;;;;;68.18;40.20;;;1.70;99.90;;;;;;5095693;28;20059;-73
2021/01/09 06:36:19;;;;;;;52.97;31.35;;;1.60;99.90;;;;;;5094090;28;20466;-74
2021/01/09 06:38:48;;;;;;;64.22;34.63;;;1.60;99.90;;;;;;5094919;28;20462;-74
2021/01/09 06:41:15;;;;;;;57.47;33.42;;;1.70;99.90;;;;;;5095116;28;20055;-74
2021/01/09 06:43:44;;;;;;;55.92;30.58;;;1.60;99.90;;;;;;5095356;28;20060;-73
2021/01/09 06:46:27;;;;;;;54.13;30.40;;;1.70;99.90;;;;;;5091531;28;20119;-77
2021/01/09 06:48:53;;;;;;;49.60;27.85;;;1.60;99.90;;;;;;5073595;28;20038;-75
2021/01/09 06:51:34;;;;;;;47.92;27.35;;;1.70;99.90;;;;;;5077052;28;20067;-73
2021/01/09 06:54:15;;;;;;;67.97;34.97;;;1.70;99.90;;;;;;5094675;28;20383;-74
2021/01/09 06:56:43;;;;;;;61.63;32.40;;;1.70;99.90;;;;;;5095194;28;20354;-72
2021/01/09 06:59:09;;;;;;;55.63;29.88;;;1.70;99.90;;;;;;5087343;28;20024;-74
2021/01/09 07:01:39;;;;;;;58.15;29.80;;;1.60;99.90;;;;;;5090883;28;20032;-72
2021/01/09 07:04:05;;;;;;;48.65;25.13;;;1.60;99.90;;;;;;5068075;28;20086;-73
2021/01/09 07:07:06;;;;;;;46.50;26.33;;;1.60;99.90;;;;;;5080554;28;20028;-73
2021/01/09 07:09:33;;;;;;;59.80;32.40;;;1.60;99.90;;;;;;5001974;28;20384;-74
2021/01/09 07:12:01;;;;;;;68.03;34.15;;;1.70;99.90;;;;;;5008291;28;20034;-71
2021/01/09 07:14:35;;;;;;;64.18;34.95;;;1.70;99.90;;;;;;4992992;28;20119;-71
2021/01/09 07:17:00;;;;;;;61.45;32.95;;;1.70;99.90;;;;;;4993919;28;20396;-71
2021/01/09 07:19:29;;;;;;;58.60;33.53;;;1.70;99.90;;;;;;5009572;28;20034;-73
2021/01/09 07:21:57;;;;;;;61.85;31.90;;;1.70;99.90;;;;;;5010357;28;20512;-74
2021/01/09 07:24:25;;;;;;;64.10;32.78;;;1.90;99.90;;;;;;5004889;28;20444;-74
2021/01/09 07:26:52;;;;;;;53.33;28.13;;;1.90;99.90;;;;;;4990354;28;20070;-73
2021/01/09 07:29:26;;;;;;;54.88;31.38;;;1.80;99.90;;;;;;5007033;28;20038;-72
2021/01/09 07:31:53;;;;;;;60.40;30.25;;;1.80;99.90;;;;;;5008820;28;20559;-72
2021/01/09 07:34:22;;;;;;;64.55;35.08;;;2.00;99.90;;;;;;5007580;28;20554;-74
2021/01/09 07:36:53;;;;;;;68.15;41.42;;;1.90;99.90;;;;;;5007320;28;20042;-71
2021/01/09 07:39:24;;;;;;;54.15;30.67;;;1.90;99.90;;;;;;5009333;28;20392;-74
2021/01/09 07:41:53;;;;;;;69.85;36.53;;;1.90;99.90;;;;;;5009666;28;20029;-75
2021/01/09 07:44:23;;;;;;;58.53;34.08;;;1.90;99.90;;;;;;5075960;28;20097;-74
2021/01/09 07:46:56;;;;;;;60.67;31.30;;;1.90;99.90;;;;;;5093109;28;20367;-71
2021/01/09 07:49:30;;;;;;;88.18;49.22;;;2.00;99.90;;;;;;5091321;28;20385;-72
2021/01/09 07:52:06;;;;;;;53.20;29.73;;;2.10;99.90;;;;;;5092472;28;20027;-72
2021/01/09 07:54:43;;;;;;;68.22;36.97;;;2.10;99.90;;;;;;5092807;28;20027;-70
2021/01/09 07:57:18;;;;;;;55.88;31.50;;;2.00;99.90;;;;;;5090154;28;20047;-72
2021/01/09 08:00:03;;;;;;;54.45;27.77;;;2.00;99.90;;;;;;5089391;28;20098;-72
2021/01/09 08:02:43;;;;;;;69.75;39.25;;;1.90;99.90;;;;;;5092009;28;20047;-73
2021/01/09 08:05:15;;;;;;;61.35;34.40;;;1.80;99.90;;;;;;5093089;28;20462;-76
2021/01/09 08:07:48;;;;;;;60.20;32.78;;;1.80;99.90;;;;;;5087889;28;20028;-74
2021/01/09 08:10:20;;;;;;;62.10;33.55;;;1.80;99.90;;;;;;5090647;28;20023;-72
2021/01/09 08:12:51;;;;;;;66.38;35.13;;;1.90;99.90;;;;;;5090942;28;20055;-72
2021/01/09 08:15:16;;;;;;;57.28;31.67;;;2.00;99.90;;;;;;5094678;28;20016;-74
2021/01/09 08:17:42;;;;;;;56.90;30.75;;;2.00;99.90;;;;;;5093642;28;20039;-73
2021/01/09 08:20:12;;;;;;;55.80;30.85;;;2.00;99.90;;;;;;5097086;28;20027;-74
2021/01/09 08:22:47;;;;;;;64.80;33.78;;;2.10;99.90;;;;;;5091135;28;20040;-74
2021/01/09 08:25:13;;;;;;;62.80;35.40;;;2.10;99.90;;;;;;5084469;28;20497;-73
2021/01/09 08:27:56;;;;;;;66.43;37.13;;;2.30;99.90;;;;;;5088271;28;20095;-74
2021/01/09 08:30:28;;;;;;;77.38;42.92;;;2.30;99.90;;;;;;5085429;28;20039;-73
2021/01/09 08:33:04;;;;;;;66.40;36.20;;;2.30;99.90;;;;;;5090353;28;20474;-73
2021/01/09 08:35:30;;;;;;;65.38;35.20;;;2.20;99.90;;;;;;5089528;28;20374;-72
2021/01/09 08:37:57;;;;;;;58.40;32.83;;;2.20;99.90;;;;;;5091676;28;20371;-75
2021/01/09 08:40:24;;;;;;;57.05;32.47;;;2.30;99.90;;;;;;5071909;28;20031;-73
2021/01/09 08:43:01;;;;;;;66.57;36.83;;;2.20;99.90;;;;;;5092152;28;20028;-74
2021/01/09 08:45:39;;;;;;;54.67;29.65;;;2.30;99.90;;;;;;5090930;28;20016;-73
2021/01/09 08:48:09;;;;;;;69.72;38.45;;;2.10;99.90;;;;;;5074670;28;20104;-73
2021/01/09 08:50:42;;;;;;;77.75;41.60;;;2.20;99.90;;;;;;5092047;28;20469;-73
2021/01/09 08:53:10;;;;;;;65.03;36.45;;;2.10;99.90;;;;;;5092080;28;20050;-74
2021/01/09 08:55:37;;;;;;;77.13;40.22;;;2.10;99.90;;;;;;5092588;28;20093;-74
2021/01/09 08:58:07;;;;;;;69.95;37.28;;;2.10;99.90;;;;;;5091107;28;20070;-74
2021/01/09 09:00:33;;;;;;;89.45;48.08;;;2.20;99.90;;;;;;5090912;28;20115;-72
2021/01/09 09:03:01;;;;;;;102.57;53.50;;;2.30;99.90;;;;;;5090742;28;20115;-74
2021/01/09 09:05:28;;;;;;;81.03;44.17;;;2.30;99.90;;;;;;5088557;28;20020;-73
2021/01/09 09:08:00;;;;;;;60.45;32.92;;;2.30;99.90;;;;;;5092203;28;20067;-73
2021/01/09 09:10:30;;;;;;;63.55;31.75;;;2.20;99.90;;;;;;5063534;28;20029;-74
2021/01/09 09:13:21;;;;;;;54.80;29.27;;;2.10;99.90;;;;;;5084533;28;20116;-73
2021/01/09 09:15:48;;;;;;;75.50;41.83;;;2.10;99.90;;;;;;5087937;28;20519;-73
2021/01/09 09:18:14;;;;;;;70.85;40.00;;;2.20;99.90;;;;;;5062042;28;20024;-78
2021/01/09 09:20:45;;;;;;;72.88;40.00;;;2.80;99.90;;;;;;5064853;28;20025;-74
2021/01/09 09:23:19;;;;;;;79.43;41.25;;;2.20;99.90;;;;;;5090095;28;20055;-75
2021/01/09 09:25:45;;;;;;;75.75;41.08;;;2.50;99.90;;;;;;5090431;28;20450;-73
2021/01/09 09:28:12;;;;;;;73.57;37.70;;;2.30;99.90;;;;;;5091027;28;20458;-75
2021/01/09 09:30:39;;;;;;;70.80;39.97;;;2.40;99.90;;;;;;5067741;28;20085;-77
2021/01/09 09:33:14;;;;;;;75.63;38.72;;;2.30;99.90;;;;;;5068646;28;20021;-81
2021/01/09 09:35:40;;;;;;;82.93;44.45;;;2.40;99.90;;;;;;5090510;28;20016;-78
2021/01/09 09:38:10;;;;;;;73.10;38.95;;;2.30;99.90;;;;;;5075501;28;20047;-82
2021/01/09 09:40:37;;;;;;;69.97;38.67;;;2.40;99.90;;;;;;5088181;28;20058;-81
2021/01/09 09:43:17;;;;;;;67.70;37.55;;;2.40;99.90;;;;;;5087328;28;20431;-78
2021/01/09 09:46:01;;;;;;;57.75;31.13;;;2.40;99.90;;;;;;5072513;28;20077;-75
2021/01/09 09:48:35;;;;;;;68.93;38.90;;;2.30;99.90;;;;;;5088679;28;20065;-74
2021/01/09 09:51:10;;;;;;;;;;;2.40;99.90;;;;;;5063786;28;20032;-78
2021/01/09 09:53:39;;;;;;;83.85;41.13;;;2.40;99.90;;;;;;5084066;28;19920;-72
2021/01/09 09:56:14;;;;;;;76.15;41.72;;;2.40;99.90;;;;;;5084643;28;20028;-78
2021/01/09 09:58:41;;;;;;;74.10;39.33;;;2.20;99.90;;;;;;5082399;28;20028;-76
2021/01/09 10:01:22;;;;;;;67.15;35.42;;;2.30;99.90;;;;;;5064292;28;20031;-74
2021/01/09 10:03:49;;;;;;;72.90;40.13;;;2.30;99.90;;;;;;5088061;28;20032;-74
2021/01/09 10:06:16;;;;;;;74.53;43.80;;;2.40;99.90;;;;;;5072026;28;20390;-76
2021/01/09 10:08:42;;;;;;;70.22;38.33;;;2.40;99.90;;;;;;5088078;28;20032;-72
2021/01/09 10:11:08;;;;;;;68.22;37.78;;;2.30;99.90;;;;;;5078722;28;20033;-71
2021/01/09 10:13:34;;;;;;;69.65;37.92;;;2.30;99.90;;;;;;5091637;28;20385;-75
2021/01/09 10:16:01;;;;;;;73.38;39.08;;;2.40;99.90;;;;;;5092428;28;20028;-72
2021/01/09 10:18:29;;;;;;;72.15;36.63;;;2.50;99.90;;;;;;5090250;28;20101;-71
2021/01/09 10:20:56;;;;;;;69.55;38.78;;;2.60;99.90;;;;;;5094251;28;20466;-71
2021/01/09 10:23:22;;;;;;;75.82;41.22;;;2.50;99.90;;;;;;5093795;28;20161;-71
2021/01/09 10:25:48;;;;;;;79.47;40.65;;;2.10;99.90;;;;;;5093150;28;20028;-71
2021/01/09 10:28:14;;;;;;;71.53;41.33;;;2.10;99.90;;;;;;5085536;28;20534;-74
2021/01/09 10:30:40;;;;;;;81.18;42.15;;;2.20;99.90;;;;;;5076101;28;20115;-72
2021/01/09 10:33:07;;;;;;;75.78;41.10;;;2.20;99.90;;;;;;5093448;28;20020;-72
2021/01/09 10:35:33;;;;;;;91.18;45.38;;;2.30;99.90;;;;;;5093222;28;20016;-73
2021/01/09 10:37:59;;;;;;;82.70;47.25;;;2.40;99.90;;;;;;5091693;28;20024;-73
2021/01/09 10:40:25;;;;;;;81.72;45.95;;;2.40;99.90;;;;;;5069952;28;20027;-70
2021/01/09 10:42:51;;;;;;;89.22;45.03;;;2.10;99.90;;;;;;5081461;28;20455;-72
2021/01/09 10:45:17;;;;;;;87.55;46.85;;;2.00;99.90;;;;;;5084364;28;20020;-72
2021/01/09 10:47:43;;;;;;;85.47;48.65;;;2.10;99.90;;;;;;5092734;28;20061;-73
2021/01/09 10:50:09;;;;;;;81.53;43.33;;;2.20;99.90;;;;;;5089290;28;20371;-72
2021/01/09 10:52:35;;;;;;;90.80;46.00;;;2.40;99.90;;;;;;5096528;28;20123;-71
2021/01/09 10:55:02;;;;;;;95.95;46.75;;;2.40;99.90;;;;;;5091344;28;20506;-71
2021/01/09 10:57:28;;;;;;;91.18;49.40;;;2.40;99.90;;;;;;5092536;28;20368;-71
2021/01/09 10:59:53;;;;;;;85.57;45.08;;;2.20;99.90;;;;;;5091799;28;20028;-71
2021/01/09 11:02:19;;;;;;;81.93;47.15;;;2.30;99.90;;;;;;5092549;28;20028;-72
2021/01/09 11:04:45;;;;;;;87.45;47.72;;;2.30;99.90;;;;;;5093945;28;20028;-70
2021/01/09 11:07:11;;;;;;;98.75;53.10;;;2.30;99.90;;;;;;5093912;28;20095;-76
2021/01/09 11:09:36;;;;;;;93.30;51.33;;;2.50;99.90;;;;;;5094430;28;20024;-75
2021/01/09 11:12:03;;;;;;;80.72;40.55;;;2.50;99.90;;;;;;5093828;28;20020;-73
2021/01/09 11:14:28;;;;;;;81.32;38.63;;;2.50;99.90;;;;;;5076269;28;20020;-73
2021/01/09 11:17:18;;;;;;;81.80;44.33;;;3.00;99.90;;;;;;5096193;28;20385;-77
2021/01/09 11:19:44;;;;;;;71.30;40.15;;;2.60;99.90;;;;;;5056666;28;20435;-75
2021/01/09 11:22:09;;;;;;;68.32;36.83;;;2.70;99.90;;;;;;5089205;28;20070;-71
2021/01/09 11:24:35;;;;;;;79.97;40.80;;;2.70;99.90;;;;;;5094182;28;20458;-74
2021/01/09 11:27:10;;;;;;;72.90;39.63;;;2.70;99.90;;;;;;5094183;28;20060;-73
2021/01/09 11:29:36;;;;;;;75.00;40.47;;;2.70;99.90;;;;;;5067353;28;20025;-79
2021/01/09 11:32:03;;;;;;;67.80;34.60;;;2.60;99.90;;;;;;5092751;28;20059;-72
2021/01/09 11:34:29;;;;;;;70.30;40.53;;;2.50;99.90;;;;;;5092883;28;20058;-74
2021/01/09 11:36:56;;;;;;;68.63;35.22;;;2.40;99.90;;;;;;5091793;28;20024;-74
2021/01/09 11:39:21;;;;;;;66.75;37.90;;;2.30;99.90;;;;;;5092012;28;20031;-72
2021/01/09 11:41:48;;;;;;;70.82;37.42;;;2.30;99.90;;;;;;5093674;28;20032;-74
2021/01/09 11:44:15;;;;;;;74.55;37.75;;;2.40;99.90;;;;;;5093798;28;20035;-74
2021/01/09 11:46:41;;;;;;;76.57;42.38;;;2.50;99.90;;;;;;5093454;28;20354;-77
2021/01/09 11:49:07;;;;;;;78.80;39.65;;;2.50;99.90;;;;;;5080865;28;20020;-74
2021/01/09 11:51:33;;;;;;;66.07;37.00;;;2.50;99.90;;;;;;5092667;28;20081;-76
2021/01/09 11:53:58;;;;;;;79.05;40.80;;;2.60;99.90;;;;;;5092655;28;20020;-75
2021/01/09 11:56:24;;;;;;;74.80;38.45;;;2.60;99.90;;;;;;5092617;28;20081;-75
2021/01/09 11:58:50;;;;;;;76.45;41.97;;;2.70;99.90;;;;;;5092044;28;20104;-72
2021/01/09 12:01:16;;;;;;;77.40;39.45;;;2.70;99.90;;;;;;5074034;28;20078;-73
2021/01/09 12:03:42;;;;;;;58.67;33.85;;;2.80;99.90;;;;;;5087373;28;20054;-74
2021/01/09 12:06:08;;;;;;;58.88;31.45;;;2.80;99.90;;;;;;5092419;28;20458;-74
2021/01/09 12:08:34;;;;;;;52.90;29.83;;;2.90;99.90;;;;;;5070643;28;20039;-72
2021/01/09 12:11:00;;;;;;;43.10;23.70;;;2.70;99.90;;;;;;5092384;28;20466;-73
2021/01/09 12:13:25;;;;;;;53.80;26.70;;;2.90;99.90;;;;;;5088754;28;20028;-72
2021/01/09 12:15:51;;;;;;;48.67;28.33;;;2.70;99.90;;;;;;5092638;28;20032;-73
2021/01/09 12:18:19;;;;;;;55.70;29.60;;;2.70;99.90;;;;;;5092752;28;20115;-72
2021/01/09 12:20:47;;;;;;;57.85;30.80;;;2.70;99.90;;;;;;5090349;28;20112;-71
2021/01/09 12:23:13;;;;;;;62.00;32.90;;;2.60;99.90;;;;;;5091764;28;20474;-74
2021/01/09 12:25:39;;;;;;;63.88;33.78;;;2.70;99.90;;;;;;5091599;28;20026;-73
2021/01/09 12:28:05;;;;;;;65.05;35.03;;;2.60;99.90;;;;;;5091490;28;20039;-72
2021/01/09 12:30:31;;;;;;;60.47;33.22;;;2.60;99.90;;;;;;5088512;28;20097;-71
2021/01/09 12:32:56;;;;;;;52.10;28.25;;;2.50;99.90;;;;;;5089182;28;20482;-72
2021/01/09 12:35:22;;;;;;;58.72;26.70;;;2.40;99.90;;;;;;5089992;28;20100;-73
2021/01/09 12:37:48;;;;;;;53.10;27.40;;;2.30;99.90;;;;;;5090075;28;20028;-71
2021/01/09 12:40:14;;;;;;;51.72;27.02;;;2.30;99.90;;;;;;5091112;28;20448;-76
2021/01/09 12:42:39;;;;;;;53.58;27.63;;;2.20;99.90;;;;;;5090964;28;20120;-73